Time;durP1;ratioP1;P1;durP2;ratioP2;P2;SDS_P1;SDS_P2;PMS_P1;PMS_P2;Temp;Humidity;BMP_temperature;BMP_pressure;BME280_temperature;BME280_humidity;BME280_pressure;Samples;Min_cycle;Max_cycle;Signal;HPM_P1;HPM_P2
2022/02/14 00:00:27;;;;;;;5.40;4.40;;;4.90;89.40;;;;;;6188891;23;20184;-82
2022/02/14 00:02:52;;;;;;;5.27;4.27;;;4.90;89.70;;;;;;6193403;23;20217;-82
2022/02/14 00:05:18;;;;;;;4.47;4.00;;;4.90;89.60;;;;;;6192882;23;20166;-82
2022/02/14 00:07:44;;;;;;;4.87;4.40;;;4.80;89.80;;;;;;6190741;23;20155;-82
2022/02/14 00:10:10;;;;;;;4.47;3.87;;;4.70;90.00;;;;;;6190819;23;20158;-82
2022/02/14 00:12:41;;;;;;;5.40;4.20;;;4.70;90.10;;;;;;6189365;23;20373;-83
2022/02/14 00:15:09;;;;;;;4.10;3.70;;;4.70;90.10;;;;;;6187697;23;20156;-82
2022/02/14 00:17:34;;;;;;;4.57;4.07;;;4.60;90.20;;;;;;6218399;23;20474;-82
2022/02/14 00:20:00;;;;;;;5.80;3.87;;;4.60;90.40;;;;;;6183048;23;21393;-82
2022/02/14 00:22:26;;;;;;;6.27;4.33;;;4.50;90.50;;;;;;6188015;23;20185;-83
2022/02/14 00:24:52;;;;;;;4.70;4.20;;;4.50;90.40;;;;;;6187152;23;20362;-83
2022/02/14 00:27:19;;;;;;;4.27;3.47;;;4.50;90.50;;;;;;6189650;23;20157;-83
2022/02/14 00:29:46;;;;;;;4.63;4.07;;;4.50;90.60;;;;;;6188031;23;20400;-83
2022/02/14 00:32:12;;;;;;;6.33;4.57;;;4.40;90.60;;;;;;6192630;23;20452;-83
2022/02/14 00:34:42;;;;;;;4.83;3.97;;;4.50;90.60;;;;;;6187398;23;20705;-83
2022/02/14 00:37:08;;;;;;;4.27;3.80;;;4.50;90.50;;;;;;6186617;23;20813;-83
2022/02/14 00:39:34;;;;;;;5.30;3.77;;;4.50;90.40;;;;;;6190345;23;20716;-83
2022/02/14 00:42:00;;;;;;;5.10;4.60;;;4.50;90.50;;;;;;6194957;23;20390;-83
2022/02/14 00:44:26;;;;;;;5.33;4.07;;;4.40;90.40;;;;;;6189614;23;20277;-83
2022/02/14 00:46:52;;;;;;;5.50;3.73;;;4.50;90.10;;;;;;6190787;23;20404;-83
2022/02/14 00:49:17;;;;;;;5.70;3.43;;;4.60;89.80;;;;;;6194807;23;20156;-82
2022/02/14 00:51:43;;;;;;;6.40;3.40;;;4.60;89.80;;;;;;6191013;23;20445;-83
2022/02/14 00:54:09;;;;;;;4.33;3.47;;;4.60;90.00;;;;;;6188971;23;20439;-83
2022/02/14 00:56:35;;;;;;;5.93;4.13;;;4.50;90.00;;;;;;6189653;23;20615;-83
2022/02/14 00:59:03;;;;;;;5.70;4.50;;;4.40;90.10;;;;;;6189005;23;20627;-83
2022/02/14 01:01:29;;;;;;;5.87;4.20;;;4.40;90.20;;;;;;6190771;23;20364;-83
2022/02/14 01:03:55;;;;;;;5.00;4.10;;;4.30;90.20;;;;;;6194119;23;20904;-84
2022/02/14 01:06:21;;;;;;;4.83;3.83;;;4.40;90.40;;;;;;6189444;23;20387;-83
2022/02/14 01:08:47;;;;;;;4.53;3.80;;;4.30;90.30;;;;;;6189925;23;20607;-83
2022/02/14 01:11:13;;;;;;;4.20;3.73;;;4.40;90.40;;;;;;6187765;23;20606;-83
2022/02/14 01:13:40;;;;;;;4.33;3.93;;;4.30;90.40;;;;;;6189986;23;20402;-83
2022/02/14 01:16:11;;;;;;;5.83;3.73;;;4.30;90.50;;;;;;6185284;23;20392;-83
2022/02/14 01:18:37;;;;;;;4.70;3.67;;;4.30;90.50;;;;;;6189224;23;20396;-83
2022/02/14 01:21:46;;;;;;;8.07;4.33;;;4.20;90.60;;;;;;6190907;23;20426;-83
2022/02/14 01:24:45;;;;;;;;;;;;;;;;;;;;;
2022/02/14 01:27:13;;;;;;;6.93;4.17;;;4.10;90.80;;;;;;6214610;23;20379;-83
2022/02/14 01:30:00;;;;;;;4.83;3.63;;;4.10;90.80;;;;;;6189710;23;20398;-83
2022/02/14 01:32:26;;;;;;;4.00;3.60;;;4.10;90.60;;;;;;6188626;23;20414;-83
2022/02/14 01:34:53;;;;;;;5.07;3.93;;;4.20;90.60;;;;;;6191455;23;20391;-83
2022/02/14 01:37:20;;;;;;;4.23;2.90;;;4.20;90.40;;;;;;6187896;23;20770;-83
2022/02/14 01:39:46;;;;;;;3.93;3.50;;;4.20;90.20;;;;;;6192922;23;20382;-83
2022/02/14 01:42:12;;;;;;;5.23;4.10;;;4.30;90.20;;;;;;6191200;23;20429;-83
2022/02/14 01:44:49;;;;;;;3.83;3.43;;;4.30;90.10;;;;;;6190075;23;20388;-82
2022/02/14 01:47:24;;;;;;;4.03;3.63;;;4.30;90.00;;;;;;6191481;23;20401;-82
2022/02/14 01:49:50;;;;;;;4.17;3.07;;;4.30;89.70;;;;;;6192641;23;20386;-82
2022/02/14 01:52:19;;;;;;;5.00;3.70;;;4.40;89.40;;;;;;6190139;23;20390;-82
2022/02/14 01:54:47;;;;;;;3.90;3.50;;;4.40;88.90;;;;;;6191281;23;20830;-83
2022/02/14 01:57:15;;;;;;;4.03;3.60;;;4.40;88.60;;;;;;6187323;23;21171;-83
2022/02/14 01:59:42;;;;;;;3.60;3.30;;;4.60;87.40;;;;;;6185310;23;20397;-83
2022/02/14 02:02:08;;;;;;;3.63;3.33;;;4.60;86.70;;;;;;6184614;23;20756;-82
2022/02/14 02:04:35;;;;;;;3.73;3.13;;;4.70;86.60;;;;;;6186600;23;20391;-83
2022/02/14 02:07:02;;;;;;;4.00;3.40;;;4.70;86.10;;;;;;6189451;23;20387;-83
2022/02/14 02:09:29;;;;;;;4.43;3.10;;;4.80;85.80;;;;;;6188812;23;20392;-83
2022/02/14 02:14:39;;;;;;;4.10;3.17;;;4.90;85.10;;;;;;6215782;23;20369;-83
2022/02/14 02:17:08;;;;;;;3.13;2.70;;;4.80;84.80;;;;;;6190173;23;20548;-83
2022/02/14 02:19:34;;;;;;;3.63;3.07;;;4.80;84.50;;;;;;6189572;23;20568;-83
2022/02/14 02:22:00;;;;;;;4.10;3.00;;;4.80;84.10;;;;;;6187232;23;20949;-83
2022/02/14 02:24:26;;;;;;;5.30;4.10;;;4.80;83.80;;;;;;6188506;23;20825;-82
2022/02/14 02:27:01;;;;;;;3.30;2.80;;;4.80;84.00;;;;;;6189617;23;21000;-82
2022/02/14 02:29:27;;;;;;;6.00;2.80;;;4.80;83.80;;;;;;6188977;23;20876;-83
2022/02/14 02:31:54;;;;;;;4.67;2.63;;;4.90;83.40;;;;;;6187698;23;20392;-82
2022/02/14 02:34:20;;;;;;;3.53;3.23;;;5.00;83.20;;;;;;6181992;23;20398;-83
2022/02/14 02:36:47;;;;;;;4.07;2.47;;;5.00;83.30;;;;;;6184668;23;20445;-82
2022/02/14 02:39:12;;;;;;;3.50;3.20;;;5.00;82.90;;;;;;6186234;23;20953;-82
2022/02/14 02:41:38;;;;;;;3.20;2.90;;;5.00;82.60;;;;;;6191738;23;20764;-82
2022/02/14 02:44:04;;;;;;;6.33;2.90;;;5.00;82.20;;;;;;6192959;23;20158;-82
2022/02/14 02:46:30;;;;;;;3.40;2.70;;;5.00;82.30;;;;;;6187980;23;20681;-82
2022/02/14 02:48:55;;;;;;;7.50;2.80;;;5.00;82.50;;;;;;6187716;23;20255;-81
2022/02/14 02:51:21;;;;;;;3.97;3.07;;;4.90;82.30;;;;;;6190227;23;20215;-82
2022/02/14 02:53:46;;;;;;;5.10;3.00;;;5.00;82.00;;;;;;6189091;23;20187;-82
2022/02/14 02:56:12;;;;;;;3.30;2.80;;;5.00;82.10;;;;;;6190850;23;20664;-82
2022/02/14 02:58:38;;;;;;;3.73;3.13;;;5.00;82.20;;;;;;6190412;23;20170;-83
2022/02/14 03:01:03;;;;;;;3.07;2.57;;;5.00;82.30;;;;;;6191186;23;20464;-82
2022/02/14 03:03:29;;;;;;;3.60;2.97;;;4.90;82.30;;;;;;6188669;23;20650;-82
2022/02/14 03:05:57;;;;;;;6.37;3.20;;;4.90;82.10;;;;;;6191831;23;20523;-83
2022/02/14 03:08:23;;;;;;;3.33;2.60;;;4.90;82.00;;;;;;6193655;23;20518;-82
2022/02/14 03:10:49;;;;;;;3.57;2.83;;;4.90;81.60;;;;;;6191727;23;20778;-82
2022/02/14 03:13:14;;;;;;;3.13;2.83;;;4.90;81.50;;;;;;6190528;23;20535;-82
2022/02/14 03:15:40;;;;;;;2.93;2.63;;;4.90;82.50;;;;;;6191064;23;20404;-82
2022/02/14 03:18:06;;;;;;;6.90;3.13;;;4.90;82.20;;;;;;6188516;23;20559;-82
2022/02/14 03:20:31;;;;;;;2.97;2.67;;;4.90;82.20;;;;;;6191007;23;20526;-82
2022/02/14 03:22:57;;;;;;;3.10;2.80;;;4.80;82.30;;;;;;6193989;23;20631;-82
2022/02/14 03:25:23;;;;;;;3.37;2.93;;;4.70;82.50;;;;;;6191347;23;20630;-83
2022/02/14 03:27:48;;;;;;;4.17;2.80;;;4.70;82.60;;;;;;6188963;23;20682;-82
2022/02/14 03:30:14;;;;;;;4.63;3.33;;;4.70;82.80;;;;;;6191542;23;20296;-82
2022/02/14 03:32:39;;;;;;;3.27;2.97;;;4.70;82.50;;;;;;6190443;23;20603;-82
2022/02/14 03:35:06;;;;;;;2.90;2.60;;;4.70;82.80;;;;;;6189810;23;20171;-82
2022/02/14 03:37:32;;;;;;;3.40;2.87;;;4.60;83.00;;;;;;6191599;23;20201;-81
2022/02/14 03:39:57;;;;;;;3.03;2.73;;;4.60;83.30;;;;;;6192127;23;20385;-82
2022/02/14 03:42:23;;;;;;;3.93;2.63;;;4.50;83.30;;;;;;6191721;23;20194;-82
2022/02/14 03:44:48;;;;;;;6.40;2.90;;;4.60;83.40;;;;;;6191038;23;20187;-82
2022/02/14 03:47:14;;;;;;;4.43;3.00;;;4.50;83.30;;;;;;6186270;23;20191;-81
2022/02/14 03:49:40;;;;;;;2.80;2.60;;;4.50;83.50;;;;;;6219094;23;20153;-81
2022/02/14 03:52:06;;;;;;;3.20;2.80;;;4.50;83.50;;;;;;6188865;23;20155;-81
2022/02/14 03:54:32;;;;;;;4.70;3.30;;;4.50;83.30;;;;;;6190000;23;20171;-81
2022/02/14 03:56:58;;;;;;;5.10;3.20;;;4.50;82.80;;;;;;6189912;23;20544;-82
2022/02/14 03:59:23;;;;;;;3.23;2.80;;;4.50;82.90;;;;;;6187827;23;20321;-82
2022/02/14 04:01:49;;;;;;;6.00;3.17;;;4.60;82.30;;;;;;6192166;23;20409;-82
2022/02/14 04:04:15;;;;;;;3.63;2.43;;;4.60;82.20;;;;;;6190788;23;20258;-82
2022/02/14 04:06:40;;;;;;;5.70;3.40;;;4.60;81.80;;;;;;6192208;23;20169;-82
2022/02/14 04:09:06;;;;;;;2.70;2.50;;;4.60;81.60;;;;;;6193009;23;20664;-82
2022/02/14 04:11:32;;;;;;;2.73;2.53;;;4.60;81.50;;;;;;6196693;23;20164;-82
2022/02/14 04:13:57;;;;;;;3.33;2.40;;;4.70;81.20;;;;;;6187846;23;20155;-82
2022/02/14 04:16:23;;;;;;;4.97;2.80;;;4.70;81.10;;;;;;6189789;23;20633;-83
2022/02/14 04:18:48;;;;;;;3.37;2.83;;;4.70;81.00;;;;;;6188202;23;20560;-82
2022/02/14 04:21:14;;;;;;;3.80;2.90;;;4.60;81.20;;;;;;6191975;23;20155;-82
2022/02/14 04:23:40;;;;;;;3.20;2.63;;;4.50;81.30;;;;;;6190818;23;20163;-82
2022/02/14 04:26:05;;;;;;;2.80;2.60;;;4.50;81.80;;;;;;6190655;23;20178;-82
2022/02/14 04:28:31;;;;;;;5.13;3.20;;;4.40;82.00;;;;;;6191593;23;20737;-82
2022/02/14 04:30:57;;;;;;;4.23;2.70;;;4.40;82.20;;;;;;6190156;23;20194;-82
2022/02/14 04:33:22;;;;;;;4.37;2.80;;;4.40;82.30;;;;;;6189929;23;20159;-82
2022/02/14 04:35:48;;;;;;;2.83;2.60;;;4.40;82.10;;;;;;6187568;23;20355;-82
2022/02/14 04:38:14;;;;;;;4.10;2.70;;;4.40;82.60;;;;;;6189804;23;20240;-82
2022/02/14 04:40:39;;;;;;;3.90;2.73;;;4.40;81.70;;;;;;6194212;23;20386;-83
2022/02/14 04:43:06;;;;;;;2.87;2.60;;;4.40;81.90;;;;;;6192653;23;20165;-83
2022/02/14 04:45:32;;;;;;;3.53;2.67;;;4.40;81.60;;;;;;6190736;23;20155;-82
2022/02/14 04:47:58;;;;;;;3.00;2.70;;;4.40;81.50;;;;;;6192830;23;20724;-82
2022/02/14 04:50:24;;;;;;;2.73;2.53;;;4.40;81.50;;;;;;6188365;23;20155;-83
2022/02/14 04:52:51;;;;;;;3.50;2.93;;;4.40;81.80;;;;;;6193449;23;20394;-83
2022/02/14 04:55:17;;;;;;;4.67;3.00;;;4.40;81.40;;;;;;6188658;23;20382;-83
2022/02/14 04:57:42;;;;;;;2.97;2.30;;;4.40;81.10;;;;;;6185412;23;21152;-83
2022/02/14 05:00:12;;;;;;;3.03;2.70;;;4.40;81.00;;;;;;6189363;23;20191;-83
2022/02/14 05:02:37;;;;;;;3.93;2.90;;;4.50;80.70;;;;;;6184896;23;20197;-83
2022/02/14 05:05:04;;;;;;;5.40;3.13;;;4.40;80.60;;;;;;6190672;23;20873;-83
2022/02/14 05:07:30;;;;;;;3.60;2.67;;;4.50;80.30;;;;;;6192783;23;20159;-83
2022/02/14 05:09:56;;;;;;;4.90;2.67;;;4.50;80.70;;;;;;6189344;23;20383;-83
2022/02/14 05:12:21;;;;;;;2.60;2.40;;;4.50;80.20;;;;;;6189767;23;20402;-82
2022/02/14 05:14:47;;;;;;;3.10;2.50;;;4.60;80.10;;;;;;6188292;23;20158;-83
2022/02/14 05:17:15;;;;;;;6.17;2.50;;;4.50;80.40;;;;;;6185884;23;20195;-83
2022/02/14 05:19:41;;;;;;;4.20;2.53;;;4.40;80.80;;;;;;6187865;23;20155;-83
2022/02/14 05:22:07;;;;;;;3.00;2.07;;;4.30;81.30;;;;;;6188023;23;20716;-81
2022/02/14 05:24:32;;;;;;;3.80;2.67;;;4.20;81.50;;;;;;6191963;23;20389;-82
2022/02/14 05:26:58;;;;;;;3.87;2.80;;;4.20;81.60;;;;;;6193834;23;20188;-81
2022/02/14 05:29:24;;;;;;;3.10;2.10;;;4.20;81.50;;;;;;6193218;23;20173;-82
2022/02/14 05:31:50;;;;;;;4.17;2.70;;;4.30;81.30;;;;;;6190529;23;20568;-82
2022/02/14 05:34:16;;;;;;;2.50;2.30;;;4.20;81.40;;;;;;6171581;23;20163;-81
2022/02/14 05:36:41;;;;;;;2.80;2.60;;;4.20;81.50;;;;;;6202078;23;20807;-82
2022/02/14 05:39:08;;;;;;;3.57;2.50;;;4.20;81.50;;;;;;6199895;23;20155;-82
2022/02/14 05:41:36;;;;;;;2.83;2.50;;;4.30;81.80;;;;;;6196792;23;20187;-82
2022/02/14 05:44:04;;;;;;;3.10;2.90;;;4.20;82.20;;;;;;6189962;23;20384;-82
2022/02/14 05:46:30;;;;;;;2.57;2.10;;;4.10;82.40;;;;;;6190872;23;20222;-82
2022/02/14 05:48:57;;;;;;;3.10;2.57;;;4.10;82.40;;;;;;6192896;23;20483;-82
2022/02/14 05:51:23;;;;;;;8.03;2.70;;;4.10;82.40;;;;;;6193283;23;21145;-81
2022/02/14 05:53:49;;;;;;;4.17;2.40;;;4.10;82.60;;;;;;6190667;23;20398;-82
2022/02/14 05:56:15;;;;;;;5.13;3.10;;;4.10;82.60;;;;;;6191509;23;20394;-82
2022/02/14 05:58:42;;;;;;;3.57;2.80;;;4.10;82.50;;;;;;6197388;23;20457;-81
2022/02/14 06:01:07;;;;;;;3.03;2.70;;;4.10;82.10;;;;;;6194680;23;20437;-81
2022/02/14 06:03:33;;;;;;;5.03;2.93;;;4.20;81.50;;;;;;6192994;23;20425;-82
2022/02/14 06:06:00;;;;;;;7.00;2.30;;;4.30;80.90;;;;;;6191400;23;20641;-82
2022/02/14 06:08:26;;;;;;;3.13;2.43;;;4.40;80.50;;;;;;6193485;23;20214;-82
2022/02/14 06:10:52;;;;;;;8.10;2.63;;;4.50;80.10;;;;;;6194123;23;20402;-82
2022/02/14 06:13:18;;;;;;;3.57;2.60;;;4.50;79.70;;;;;;6195933;23;21413;-82
2022/02/14 06:15:43;;;;;;;3.60;1.93;;;4.60;79.50;;;;;;6193576;23;20410;-82
2022/02/14 06:18:10;;;;;;;2.43;2.23;;;4.70;78.60;;;;;;6193708;23;20199;-82
2022/02/14 06:20:36;;;;;;;3.73;3.03;;;4.80;78.30;;;;;;6190343;23;20801;-82
2022/02/14 06:23:03;;;;;;;3.53;2.70;;;4.80;78.60;;;;;;6167559;23;20826;-82
2022/02/14 06:25:31;;;;;;;3.70;2.40;;;4.80;78.30;;;;;;6198393;23;20707;-82
2022/02/14 06:27:59;;;;;;;5.37;2.73;;;4.90;77.90;;;;;;6196292;23;20954;-82
2022/02/14 06:30:25;;;;;;;3.37;2.37;;;4.90;78.20;;;;;;6189137;23;20390;-82
2022/02/14 06:32:50;;;;;;;3.37;3.07;;;4.80;78.60;;;;;;6185976;23;20394;-83
2022/02/14 06:35:16;;;;;;;4.17;2.70;;;4.80;78.70;;;;;;6189085;23;20225;-82
2022/02/14 06:37:43;;;;;;;3.73;2.30;;;4.80;79.20;;;;;;6192015;23;20487;-84
2022/02/14 06:40:11;;;;;;;3.40;3.10;;;4.80;79.30;;;;;;6189736;23;20389;-83
2022/02/14 06:42:36;;;;;;;3.23;2.93;;;4.70;79.60;;;;;;6194359;23;20472;-84
2022/02/14 06:45:03;;;;;;;4.77;3.63;;;4.70;79.70;;;;;;6187891;23;20863;-83
2022/02/14 06:47:28;;;;;;;3.67;3.37;;;4.70;80.30;;;;;;6186162;23;20301;-85
2022/02/14 06:49:55;;;;;;;4.60;3.10;;;4.70;80.30;;;;;;6186598;23;20403;-84
2022/02/14 06:52:21;;;;;;;4.43;3.10;;;4.80;80.40;;;;;;6185402;23;20164;-86
2022/02/14 06:54:47;;;;;;;4.30;3.40;;;4.80;80.60;;;;;;6192475;23;20756;-85
2022/02/14 06:57:16;;;;;;;3.37;2.80;;;4.70;80.80;;;;;;6189732;23;20626;-85
2022/02/14 06:59:45;;;;;;;5.23;3.20;;;4.70;81.00;;;;;;6193768;23;20160;-85
2022/02/14 07:02:15;;;;;;;7.30;3.23;;;4.70;81.10;;;;;;6191617;23;20388;-85
2022/02/14 07:04:49;;;;;;;4.10;2.60;;;4.70;80.90;;;;;;6191354;23;21132;-85
2022/02/14 07:07:22;;;;;;;3.73;3.33;;;4.70;80.80;;;;;;6193660;23;20376;-84
2022/02/14 07:09:55;;;;;;;3.00;2.63;;;4.70;80.40;;;;;;6212188;23;20574;-85
2022/02/14 07:12:21;;;;;;;2.93;2.43;;;4.80;80.20;;;;;;6192454;23;20945;-83
2022/02/14 07:14:51;;;;;;;3.17;2.77;;;4.90;80.00;;;;;;6194102;23;20157;-84
2022/02/14 07:17:20;;;;;;;3.10;2.70;;;4.90;79.90;;;;;;6199779;23;20580;-86
2022/02/14 07:19:45;;;;;;;7.90;4.80;;;5.00;79.90;;;;;;6200943;23;20395;-85
2022/02/14 07:22:14;;;;;;;3.77;2.83;;;5.00;80.10;;;;;;6199685;23;20172;-85
2022/02/14 07:24:39;;;;;;;3.43;2.33;;;5.00;80.50;;;;;;6200600;23;20158;-85
2022/02/14 07:27:08;;;;;;;5.97;3.23;;;5.00;80.90;;;;;;6199323;23;20390;-83
2022/02/14 07:29:33;;;;;;;5.10;3.50;;;5.00;81.30;;;;;;6198879;23;21050;-85
2022/02/14 07:32:00;;;;;;;5.83;3.53;;;5.00;81.40;;;;;;6201201;23;20488;-85
2022/02/14 07:34:32;;;;;;;5.60;3.50;;;4.90;81.60;;;;;;6202473;23;20534;-84
2022/02/14 07:37:04;;;;;;;3.53;2.90;;;5.00;81.80;;;;;;6168979;23;20476;-84
2022/02/14 07:39:30;;;;;;;5.37;3.50;;;5.10;81.90;;;;;;6167459;23;20387;-84
2022/02/14 07:41:57;;;;;;;3.90;3.30;;;5.10;81.60;;;;;;6166455;23;20409;-84
2022/02/14 07:44:25;;;;;;;7.70;3.10;;;5.30;81.30;;;;;;6168227;23;20391;-85
2022/02/14 07:46:54;;;;;;;3.53;2.40;;;5.40;80.90;;;;;;6167330;23;20405;-83
2022/02/14 07:49:22;;;;;;;3.57;2.53;;;5.50;80.50;;;;;;6167929;23;20393;-84
2022/02/14 07:52:07;;;;;;;3.03;2.30;;;5.60;80.10;;;;;;6170092;23;20169;-86
2022/02/14 07:54:43;;;;;;;3.60;3.30;;;5.70;80.00;;;;;;6169444;23;20441;-84
2022/02/14 07:57:09;;;;;;;3.13;2.80;;;5.80;79.90;;;;;;6195019;23;20511;-84
2022/02/14 07:59:43;;;;;;;3.30;2.90;;;5.90;79.50;;;;;;6168954;23;20437;-84
2022/02/14 08:02:14;;;;;;;4.27;2.60;;;6.00;79.40;;;;;;6168428;23;20156;-86
2022/02/14 08:04:46;;;;;;;2.70;2.43;;;6.10;79.10;;;;;;6189935;23;20378;-84
2022/02/14 08:07:13;;;;;;;7.10;3.00;;;6.20;78.70;;;;;;6142832;23;20759;-87
2022/02/14 08:09:39;;;;;;;5.23;3.10;;;6.20;78.70;;;;;;6168970;23;20518;-85
2022/02/14 08:12:07;;;;;;;4.30;3.13;;;6.40;78.50;;;;;;6167730;23;20386;-86
2022/02/14 08:14:34;;;;;;;3.50;3.20;;;6.50;78.40;;;;;;6167345;23;20215;-84
2022/02/14 08:17:02;;;;;;;4.10;2.90;;;6.70;78.50;;;;;;6165786;23;20768;-87
2022/02/14 08:19:36;;;;;;;7.10;4.47;;;6.80;79.10;;;;;;6165800;23;20444;-85
2022/02/14 08:22:04;;;;;;;3.87;2.80;;;6.90;77.60;;;;;;6164570;23;20398;-85
2022/02/14 08:24:30;;;;;;;6.00;2.90;;;7.00;79.30;;;;;;6162691;23;20394;-86
2022/02/14 08:26:59;;;;;;;4.63;3.27;;;7.20;78.80;;;;;;6188319;23;20386;-86
2022/02/14 08:29:35;;;;;;;3.90;3.03;;;7.30;76.30;;;;;;6162558;23;20430;-85
2022/02/14 08:32:01;;;;;;;5.73;2.83;;;7.50;76.00;;;;;;6163044;23;20433;-86
2022/02/14 08:34:28;;;;;;;3.27;2.77;;;7.70;76.00;;;;;;6160806;23;20386;-85
2022/02/14 08:36:55;;;;;;;3.40;3.07;;;8.00;75.40;;;;;;6192354;23;20200;-84
2022/02/14 08:39:26;;;;;;;4.20;2.90;;;8.30;74.90;;;;;;6191857;23;20393;-85
2022/02/14 08:41:52;;;;;;;3.50;2.80;;;8.40;73.40;;;;;;6192502;23;20391;-84
2022/02/14 08:44:17;;;;;;;3.57;3.27;;;8.70;72.60;;;;;;6192861;23;20378;-84
2022/02/14 08:46:43;;;;;;;5.10;3.40;;;8.90;72.30;;;;;;6197676;23;20163;-86
2022/02/14 08:49:16;;;;;;;3.60;2.70;;;9.10;71.60;;;;;;6190480;23;20248;-86
2022/02/14 08:51:42;;;;;;;9.10;2.77;;;9.30;70.20;;;;;;6193406;23;20465;-86
2022/02/14 08:54:15;;;;;;;4.87;3.20;;;9.60;68.50;;;;;;6198180;23;20485;-85
2022/02/14 08:56:41;;;;;;;4.60;3.10;;;9.70;67.50;;;;;;6193623;23;20669;-85
2022/02/14 08:59:07;;;;;;;4.23;3.40;;;10.00;66.00;;;;;;6195082;23;20472;-84
2022/02/14 09:01:35;;;;;;;7.13;3.07;;;10.10;66.20;;;;;;6191398;23;20201;-84
2022/02/14 09:04:01;;;;;;;4.90;3.13;;;10.40;64.80;;;;;;6192278;23;20492;-84
2022/02/14 09:06:29;;;;;;;3.30;3.00;;;10.80;64.70;;;;;;6190826;23;20895;-84
2022/02/14 09:09:01;;;;;;;2.87;2.33;;;10.80;64.20;;;;;;6194413;23;20163;-85
2022/02/14 09:11:26;;;;;;;4.93;3.00;;;10.90;64.00;;;;;;6193427;23;20849;-84
2022/02/14 09:13:55;;;;;;;3.03;2.83;;;10.80;64.70;;;;;;6189658;23;20502;-87
2022/02/14 09:16:21;;;;;;;3.63;3.30;;;10.80;64.90;;;;;;6193499;23;20238;-86
2022/02/14 09:24:17;;;;;;;4.13;2.93;;;11.20;66.30;;;;;;6169110;23;20614;-85
2022/02/14 09:26:57;;;;;;;;;;;;;;;;;;;;;
2022/02/14 09:29:31;;;;;;;5.00;2.73;;;11.00;65.90;;;;;;6219831;23;20370;-85
2022/02/14 09:32:07;;;;;;;5.10;2.87;;;10.90;66.50;;;;;;6194016;23;20379;-85
2022/02/14 09:34:33;;;;;;;6.80;3.30;;;11.00;66.00;;;;;;6196585;23;20374;-84
2022/02/14 09:36:58;;;;;;;7.47;3.43;;;10.90;66.40;;;;;;6194735;23;20451;-84
2022/02/14 09:39:30;;;;;;;5.30;2.90;;;10.90;67.00;;;;;;6191098;23;20497;-84
2022/02/14 09:42:04;;;;;;;7.57;3.80;;;11.20;67.10;;;;;;6193854;23;20226;-85
2022/02/14 09:44:36;;;;;;;3.60;3.30;;;11.10;67.40;;;;;;6193555;23;20436;-86
2022/02/14 09:47:05;;;;;;;5.37;3.80;;;11.10;67.50;;;;;;6191534;23;20508;-84
2022/02/14 09:49:31;;;;;;;6.00;3.63;;;11.40;68.20;;;;;;6193523;23;20540;-85
2022/02/14 09:52:07;;;;;;;;;;;;;;;;;;;;;
2022/02/14 09:54:33;;;;;;;5.90;4.13;;;11.60;68.30;;;;;;6218522;23;20461;-87
2022/02/14 09:56:59;;;;;;;5.37;3.40;;;11.90;67.90;;;;;;6192298;23;20437;-87
2022/02/14 09:59:37;;;;;;;;;;;;;;;;;;;;;
2022/02/14 10:02:26;;;;;;;4.80;3.20;;;12.70;67.60;;;;;;6220595;23;20524;-86
2022/02/14 10:05:21;;;;;;;5.47;3.63;;;13.20;65.00;;;;;;6190484;23;20386;-84
2022/02/14 10:07:48;;;;;;;7.00;3.33;;;13.30;63.70;;;;;;6191914;23;20836;-84
2022/02/14 10:10:18;;;;;;;6.50;3.33;;;13.20;63.50;;;;;;6190031;23;20382;-86
2022/02/14 10:12:59;;;;;;;5.47;3.03;;;13.50;62.50;;;;;;6190558;23;20495;-86
2022/02/14 10:15:26;;;;;;;7.30;4.53;;;13.90;63.10;;;;;;6193201;23;20397;-86
2022/02/14 10:17:53;;;;;;;6.30;4.10;;;14.00;62.60;;;;;;6195949;23;20437;-87
2022/02/14 10:20:21;;;;;;;7.20;4.20;;;14.30;62.20;;;;;;6198348;23;20460;-86
2022/02/14 10:23:06;;;;;;;4.90;4.40;;;14.80;63.40;;;;;;6197840;23;20390;-87
2022/02/14 10:25:44;;;;;;;5.40;3.90;;;14.80;62.90;;;;;;6194482;23;20386;-86
2022/02/14 10:28:21;;;;;;;5.97;3.70;;;14.90;63.10;;;;;;6196251;23;20389;-86
2022/02/14 10:31:02;;;;;;;6.47;3.70;;;15.00;62.00;;;;;;6189132;23;20464;-87
2022/02/14 10:33:48;;;;;;;5.10;3.23;;;14.70;63.60;;;;;;6189399;23;20389;-86
2022/02/14 10:36:32;;;;;;;5.30;3.33;;;14.80;62.60;;;;;;6190639;23;20409;-85
2022/02/14 10:39:11;;;;;;;6.77;3.60;;;14.60;62.40;;;;;;6184408;23;20402;-84
2022/02/14 10:41:41;;;;;;;3.93;2.93;;;14.40;62.00;;;;;;6187949;23;20397;-87
2022/02/14 10:45:07;;;;;;;4.00;2.93;;;14.10;62.60;;;;;;6192095;23;20456;-86
2022/02/14 10:47:29;;;;;;;4.17;3.43;;;14.10;63.20;;;;;;6220027;23;20378;-88
2022/02/14 10:50:18;;;;;;;3.70;3.20;;;14.00;64.10;;;;;;6187623;23;20466;-87
2022/02/14 10:52:52;;;;;;;4.93;3.03;;;14.20;64.20;;;;;;6192181;23;20484;-86
2022/02/14 10:58:00;;;;;;;5.10;3.30;;;14.20;65.60;;;;;;6222725;23;20433;-85
2022/02/14 11:00:35;;;;;;;6.73;3.07;;;14.10;67.00;;;;;;6195173;23;20384;-85
2022/02/14 11:03:06;;;;;;;4.57;3.07;;;13.80;67.30;;;;;;6194683;23;20902;-85
2022/02/14 11:05:32;;;;;;;4.77;2.77;;;13.90;68.50;;;;;;6193720;23;20378;-84
2022/02/14 11:08:01;;;;;;;3.47;3.00;;;13.80;68.40;;;;;;6200119;23;20385;-84
2022/02/14 11:10:28;;;;;;;9.87;2.40;;;13.80;69.70;;;;;;6193281;23;20389;-84
2022/02/14 11:12:55;;;;;;;4.40;2.67;;;13.90;70.30;;;;;;6193807;23;20390;-84
2022/02/14 11:15:34;;;;;;;5.23;2.90;;;13.70;70.00;;;;;;6191169;23;20493;-85
2022/02/14 11:18:12;;;;;;;3.83;2.50;;;13.90;70.70;;;;;;6186221;23;20620;-85
2022/02/14 11:20:43;;;;;;;5.97;2.60;;;14.00;70.40;;;;;;6192212;23;20385;-85
2022/02/14 11:23:14;;;;;;;5.07;2.70;;;13.90;71.00;;;;;;6197112;23;20398;-84
2022/02/14 11:25:57;;;;;;;4.20;2.40;;;13.80;71.90;;;;;;6194363;23;20547;-84
2022/02/14 11:28:48;;;;;;;4.67;2.40;;;13.90;72.80;;;;;;6194485;23;20386;-85
2022/02/14 11:31:17;;;;;;;5.13;3.33;;;14.00;72.50;;;;;;6195752;23;20461;-84
2022/02/14 11:33:51;;;;;;;4.83;2.50;;;13.70;73.70;;;;;;6194651;23;20694;-85
2022/02/14 11:36:17;;;;;;;5.07;2.27;;;13.40;74.90;;;;;;6193856;23;20762;-84
2022/02/14 11:38:59;;;;;;;4.70;2.70;;;13.20;75.80;;;;;;6193794;23;20437;-83
2022/02/14 11:41:42;;;;;;;4.23;2.53;;;13.20;76.90;;;;;;6189104;23;20390;-82
2022/02/14 11:44:14;;;;;;;8.47;3.03;;;13.10;77.60;;;;;;6192997;23;20444;-82
2022/02/14 11:46:54;;;;;;;3.90;2.73;;;13.20;78.60;;;;;;6190705;23;20404;-82
2022/02/14 11:49:22;;;;;;;2.83;2.40;;;13.30;78.10;;;;;;6193710;23;20374;-81
2022/02/14 11:51:58;;;;;;;9.77;2.73;;;13.20;77.90;;;;;;6195449;23;20390;-82
2022/02/14 11:54:39;;;;;;;4.17;2.27;;;13.20;78.30;;;;;;6194475;23;20806;-82
2022/02/14 11:57:22;;;;;;;2.77;2.27;;;13.10;78.80;;;;;;6190444;23;20433;-82
2022/02/14 11:59:49;;;;;;;5.70;2.50;;;13.20;79.10;;;;;;6195515;23;20447;-82
2022/02/14 12:02:24;;;;;;;6.00;2.77;;;13.20;79.10;;;;;;6187823;23;20398;-81
2022/02/14 12:04:51;;;;;;;5.27;2.60;;;13.20;79.30;;;;;;6187451;23;20825;-82
2022/02/14 12:07:23;;;;;;;6.73;2.40;;;13.10;81.00;;;;;;6190149;23;20629;-82
2022/02/14 12:10:00;;;;;;;3.53;2.10;;;13.00;80.90;;;;;;6197447;23;20394;-82
2022/02/14 12:12:59;;;;;;;4.83;2.83;;;12.90;81.90;;;;;;6192855;23;20775;-81
2022/02/14 12:20:48;;;;;;;3.50;2.77;;;12.90;83.00;;;;;;6220185;23;20370;-82
2022/02/14 12:23:25;;;;;;;3.50;2.67;;;12.70;83.70;;;;;;6195104;23;20386;-83
2022/02/14 12:25:51;;;;;;;3.97;2.80;;;12.60;84.10;;;;;;6192706;23;20421;-82
2022/02/14 12:28:17;;;;;;;4.47;2.73;;;12.50;84.10;;;;;;6191330;23;20820;-83
2022/02/14 12:30:45;;;;;;;7.57;6.00;;;12.40;84.20;;;;;;6196631;23;20528;-82
2022/02/14 12:33:13;;;;;;;3.27;2.97;;;12.40;84.80;;;;;;6220148;23;20755;-83
2022/02/14 12:35:47;;;;;;;3.60;2.77;;;12.40;85.60;;;;;;6189075;23;20512;-83
2022/02/14 12:38:14;;;;;;;4.37;2.60;;;12.40;86.20;;;;;;6189606;23;20615;-82
2022/02/14 12:40:49;;;;;;;7.03;2.30;;;12.30;86.70;;;;;;6194322;23;20843;-83
2022/02/14 12:43:25;;;;;;;3.30;2.40;;;12.30;87.10;;;;;;6190924;23;20404;-83
2022/02/14 12:45:53;;;;;;;2.80;2.20;;;12.20;86.90;;;;;;6189749;23;20744;-83
2022/02/14 12:48:31;;;;;;;4.10;2.43;;;12.40;87.30;;;;;;6192673;23;20396;-82
2022/02/14 12:50:57;;;;;;;3.40;1.93;;;12.50;86.60;;;;;;6188266;23;20480;-82
2022/02/14 12:53:23;;;;;;;3.20;2.00;;;12.70;85.80;;;;;;6193086;23;20823;-83
2022/02/14 12:55:49;;;;;;;3.27;1.90;;;12.90;85.10;;;;;;6193095;23;20834;-80
2022/02/14 12:58:18;;;;;;;2.70;2.13;;;13.00;84.90;;;;;;6196010;23;20453;-81
2022/02/14 13:00:43;;;;;;;2.60;2.00;;;12.80;85.50;;;;;;6190166;23;20706;-82
2022/02/14 13:03:14;;;;;;;2.07;1.87;;;12.70;86.30;;;;;;6190441;23;20402;-82
2022/02/14 13:05:48;;;;;;;3.70;1.80;;;12.90;85.60;;;;;;6189472;23;20155;-82
2022/02/14 13:08:21;;;;;;;2.93;1.93;;;13.10;85.70;;;;;;6189763;23;20488;-82
2022/02/14 13:10:51;;;;;;;2.23;2.03;;;13.40;84.80;;;;;;6193950;23;20390;-83
2022/02/14 13:13:33;;;;;;;4.40;1.90;;;13.50;84.80;;;;;;6185233;23;20403;-82
2022/02/14 13:16:06;;;;;;;5.37;2.07;;;13.20;84.80;;;;;;6195970;23;20393;-82
2022/02/14 13:18:49;;;;;;;2.47;1.60;;;12.80;86.50;;;;;;6197485;23;20752;-84
2022/02/14 13:21:18;;;;;;;1.70;1.53;;;12.90;87.50;;;;;;6195471;23;20443;-83
2022/02/14 13:23:45;;;;;;;3.03;1.53;;;12.70;87.50;;;;;;6198421;23;20881;-85